Time;durP1;ratioP1;P1;durP2;ratioP2;P2;SDS_P1;SDS_P2;PMS_P1;PMS_P2;Temp;Humidity;BMP_temperature;BMP_pressure;BME280_temperature;BME280_humidity;BME280_pressure;Samples;Min_cycle;Max_cycle;Signal;HPM_P1;HPM_P2
2023/12/23 00:00:09;;;;;;;0.05;0.03;;;;;;;6.76;100.00;99627.53;5036853;28;20041;-69
2023/12/23 00:02:37;;;;;;;0.10;0.10;;;;;;;6.67;100.00;99643.69;5045316;28;20054;-70
2023/12/23 00:05:06;;;;;;;0.63;0.20;;;;;;;6.62;100.00;99643.03;5035744;28;20525;-71
2023/12/23 00:07:35;;;;;;;0.32;0.20;;;;;;;6.65;100.00;99645.53;5036862;28;20060;-70
2023/12/23 00:10:04;;;;;;;1.70;1.00;;;;;;;6.60;100.00;99643.13;5039260;28;20080;-71
2023/12/23 00:12:33;;;;;;;2.40;0.30;;;;;;;6.61;100.00;99655.31;5044887;28;20042;-72
2023/12/23 00:15:01;;;;;;;0.73;0.30;;;;;;;6.54;100.00;99668.81;5040652;28;20033;-70
2023/12/23 00:17:31;;;;;;;0.50;0.10;;;;;;;6.55;100.00;99663.50;5022930;28;20170;-71
2023/12/23 00:20:00;;;;;;;1.83;0.30;;;;;;;6.56;100.00;99673.09;5029897;28;20128;-71
2023/12/23 00:22:30;;;;;;;2.30;0.30;;;;;;;6.59;100.00;99678.25;5037451;28;20509;-71
2023/12/23 00:24:58;;;;;;;0.52;0.20;;;;;;;6.62;100.00;99696.50;5029683;28;20048;-70
2023/12/23 00:27:26;;;;;;;1.35;0.22;;;;;;;6.60;100.00;99700.13;5028392;28;20045;-71
2023/12/23 00:30:00;;;;;;;1.10;0.30;;;;;;;6.61;100.00;99707.94;5029871;28;20049;-70
2023/12/23 00:32:32;;;;;;;1.45;0.30;;;;;;;6.65;100.00;99712.16;5052126;28;20053;-70
2023/12/23 00:35:01;;;;;;;2.83;0.40;;;;;;;6.66;100.00;99718.28;5031815;28;20693;-70
2023/12/23 00:37:30;;;;;;;2.67;0.30;;;;;;;6.62;100.00;99714.91;5022289;28;20095;-70
2023/12/23 00:39:59;;;;;;;2.10;0.75;;;;;;;6.57;100.00;99716.91;5010648;28;20510;-70
2023/12/23 00:42:28;;;;;;;1.40;0.50;;;;;;;6.57;100.00;99731.81;5010644;28;20115;-70
2023/12/23 00:44:58;;;;;;;2.53;0.57;;;;;;;6.54;100.00;99726.69;5012921;28;20033;-69
2023/12/23 00:47:26;;;;;;;2.45;0.40;;;;;;;6.50;100.00;99725.09;5032662;28;20045;-72
2023/12/23 00:50:04;;;;;;;2.60;0.73;;;;;;;6.50;100.00;99720.69;5031398;28;20084;-71
2023/12/23 00:52:33;;;;;;;0.95;0.32;;;;;;;6.50;100.00;99715.44;5032331;28;20045;-70
2023/12/23 00:55:02;;;;;;;3.70;0.40;;;;;;;6.50;100.00;99725.09;5030770;28;20371;-70
2023/12/23 00:57:30;;;;;;;1.70;0.35;;;;;;;6.50;100.00;99736.47;5025590;28;20053;-71
2023/12/23 00:59:58;;;;;;;1.23;0.28;;;;;;;6.48;100.00;99725.16;5011845;28;20057;-71
2023/12/23 01:02:26;;;;;;;0.40;0.20;;;;;;;6.52;100.00;99734.63;5027680;28;20588;-71
2023/12/23 01:04:54;;;;;;;0.73;0.13;;;;;;;6.52;100.00;99742.53;5011210;28;20041;-71
2023/12/23 01:07:28;;;;;;;0.90;0.22;;;;;;;6.53;100.00;99760.03;5019433;28;20053;-71
2023/12/23 01:09:58;;;;;;;1.15;0.30;;;;;;;6.51;100.00;99761.84;5029190;28;20111;-70
2023/12/23 01:12:26;;;;;;;2.55;0.40;;;;;;;6.47;100.00;99762.88;5033767;28;20478;-71
2023/12/23 01:14:55;;;;;;;0.73;0.30;;;;;;;6.50;100.00;99768.03;5028630;28;20121;-69
2023/12/23 01:17:22;;;;;;;1.85;0.30;;;;;;;6.50;100.00;99761.91;5023936;28;20045;-71
2023/12/23 01:19:51;;;;;;;2.00;0.40;;;;;;;6.49;100.00;99771.56;5028490;28;20045;-71
2023/12/23 01:22:20;;;;;;;1.30;0.38;;;;;;;6.51;100.00;99774.16;5045531;28;20041;-70
2023/12/23 01:24:50;;;;;;;3.55;0.77;;;;;;;6.52;100.00;99771.47;5013622;28;20042;-71
2023/12/23 01:27:20;;;;;;;1.90;0.40;;;;;;;6.52;100.00;99765.34;5024342;28;20069;-71
2023/12/23 01:29:50;;;;;;;1.23;0.30;;;;;;;6.56;100.00;99767.78;5042641;28;20567;-70
2023/12/23 01:32:18;;;;;;;1.95;0.35;;;;;;;6.59;100.00;99777.34;5016061;28;20076;-71
2023/12/23 01:34:47;;;;;;;0.35;0.30;;;;;;;6.62;100.00;99772.78;5029756;28;20050;-70
2023/12/23 01:37:15;;;;;;;2.00;0.38;;;;;;;6.60;100.00;99760.66;5022544;28;20123;-72
2023/12/23 01:39:43;;;;;;;1.75;0.40;;;;;;;6.67;100.00;99759.47;5007203;28;20050;-70
2023/12/23 01:42:14;;;;;;;1.65;0.40;;;;;;;6.74;100.00;99773.22;5029317;28;20092;-71
2023/12/23 01:44:49;;;;;;;1.58;0.38;;;;;;;6.72;100.00;99778.56;5012752;28;20058;-71
2023/12/23 01:47:19;;;;;;;0.75;0.30;;;;;;;6.72;100.00;99790.84;5021610;28;20660;-72
2023/12/23 01:49:49;;;;;;;1.38;0.40;;;;;;;6.73;100.00;99793.41;5026954;28;20112;-72
2023/12/23 01:52:20;;;;;;;1.60;0.30;;;;;;;6.73;100.00;99801.31;5026891;28;20049;-70
2023/12/23 01:54:48;;;;;;;1.25;0.47;;;;;;;6.77;100.00;99776.56;5030912;28;20109;-69
2023/12/23 01:57:18;;;;;;;1.45;0.57;;;;;;;6.81;100.00;99796.56;5037128;28;20045;-70
2023/12/23 01:59:53;;;;;;;0.80;0.25;;;;;;;6.78;100.00;99790.59;5039981;28;20041;-71
2023/12/23 02:02:24;;;;;;;1.52;0.30;;;;;;;6.74;100.00;99797.78;5033593;28;20072;-71
2023/12/23 02:04:54;;;;;;;1.95;0.40;;;;;;;6.75;100.00;99796.84;5024968;28;20073;-69
2023/12/23 02:07:22;;;;;;;1.55;0.30;;;;;;;6.73;100.00;99808.34;5023026;28;20061;-70
2023/12/23 02:09:51;;;;;;;0.98;0.40;;;;;;;6.73;100.00;99810.97;5026537;28;20049;-69
2023/12/23 02:12:31;;;;;;;3.63;0.68;;;;;;;6.67;100.00;99802.41;5043535;28;20055;-70
2023/12/23 02:15:04;;;;;;;1.77;0.40;;;;;;;6.71;100.00;99807.56;5029846;28;20044;-70
2023/12/23 02:20:14;;;;;;;1.77;0.40;;;;;;;6.76;100.00;99805.59;5025804;28;20532;-71
2023/12/23 02:22:46;;;;;;;3.20;0.45;;;;;;;6.80;100.00;99812.44;5042864;28;20068;-70
2023/12/23 02:25:14;;;;;;;2.25;0.45;;;;;;;6.80;100.00;99807.16;5033889;28;20042;-70
2023/12/23 02:27:50;;;;;;;2.67;0.60;;;;;;;6.76;100.00;99802.97;5030446;28;20053;-70
2023/12/23 02:30:20;;;;;;;2.80;0.80;;;;;;;6.74;100.00;99800.41;5036351;28;20045;-72
2023/12/23 02:32:51;;;;;;;2.28;0.50;;;;;;;6.76;100.00;99792.44;5033870;28;20576;-73
2023/12/23 02:35:23;;;;;;;3.55;0.90;;;;;;;6.81;100.00;99795.72;5032803;28;20076;-70
2023/12/23 02:37:54;;;;;;;2.63;0.60;;;;;;;6.86;100.00;99797.25;5006440;28;20052;-69
2023/12/23 02:40:24;;;;;;;1.90;0.65;;;;;;;6.91;100.00;99789.19;5047955;28;20053;-71
2023/12/23 02:42:52;;;;;;;2.15;0.70;;;;;;;7.01;100.00;99790.50;5032579;28;20068;-71
2023/12/23 02:45:22;;;;;;;2.58;0.60;;;;;;;6.99;100.00;99787.06;5019604;28;20041;-70
2023/12/23 02:47:50;;;;;;;5.55;0.80;;;;;;;7.01;100.00;99786.09;5035332;28;20497;-71
2023/12/23 02:50:17;;;;;;;3.35;0.85;;;;;;;7.00;100.00;99786.16;5033661;28;20533;-71
2023/12/23 02:52:45;;;;;;;3.92;0.73;;;;;;;7.02;100.00;99784.31;5035655;28;20047;-71
2023/12/23 02:55:18;;;;;;;;;;;;;;;7.01;100.00;99779.97;5036109;28;20049;-71
2023/12/23 02:57:47;;;;;;;4.18;0.85;;;;;;;6.98;100.00;99774.81;5028729;28;19929;-71
2023/12/23 03:00:15;;;;;;;2.97;0.82;;;;;;;7.04;100.00;99771.94;5047552;28;20056;-71
2023/12/23 03:02:43;;;;;;;3.50;0.80;;;;;;;7.09;100.00;99771.72;5035376;28;20042;-71
2023/12/23 03:05:11;;;;;;;1.50;0.60;;;;;;;7.08;100.00;99760.38;5016047;28;20049;-69
2023/12/23 03:07:39;;;;;;;2.22;0.75;;;;;;;7.02;100.00;99748.31;5027864;28;20324;-71
2023/12/23 03:10:09;;;;;;;4.00;0.70;;;;;;;7.07;100.00;99740.22;5033048;28;20522;-71
2023/12/23 03:12:40;;;;;;;2.72;0.63;;;;;;;7.04;100.00;99738.59;5033497;28;20465;-71
2023/12/23 03:15:10;;;;;;;1.17;0.45;;;;;;;7.05;100.00;99736.81;5022065;28;20424;-70
2023/12/23 03:17:38;;;;;;;1.10;0.50;;;;;;;7.09;100.00;99727.81;5013119;28;20366;-71
2023/12/23 03:20:09;;;;;;;3.35;0.90;;;;;;;7.10;100.00;99716.38;5035416;28;20051;-71
2023/12/23 03:22:39;;;;;;;2.85;0.68;;;;;;;7.07;100.00;99705.16;5031600;28;20029;-70
2023/12/23 03:25:08;;;;;;;1.55;0.50;;;;;;;7.10;100.00;99716.38;5033238;28;20075;-70
2023/12/23 03:27:37;;;;;;;0.65;0.40;;;;;;;7.10;100.00;99715.53;5013684;28;20049;-70
2023/12/23 03:30:08;;;;;;;1.70;0.30;;;;;;;7.11;100.00;99720.72;5023707;28;20085;-70
2023/12/23 03:32:36;;;;;;;1.08;0.50;;;;;;;6.99;100.00;99700.19;5027401;28;20054;-70
2023/12/23 03:35:08;;;;;;;1.40;0.50;;;;;;;7.09;100.00;99717.28;5028784;28;20452;-70
2023/12/23 03:37:37;;;;;;;2.00;0.30;;;;;;;7.14;100.00;99712.69;5024097;28;20073;-70
2023/12/23 03:40:08;;;;;;;1.27;0.50;;;;;;;7.09;100.00;99712.03;5022051;28;20057;-70
2023/12/23 03:42:38;;;;;;;0.98;0.40;;;;;;;7.01;100.00;99711.53;5028555;28;20045;-70
2023/12/23 03:45:08;;;;;;;1.20;0.30;;;;;;;6.93;100.00;99721.50;5030394;28;20056;-70
2023/12/23 03:47:38;;;;;;;2.15;0.30;;;;;;;6.90;100.00;99719.91;5030539;28;20045;-69
2023/12/23 03:50:09;;;;;;;2.70;0.50;;;;;;;6.88;100.00;99705.09;5024944;28;20049;-71
2023/12/23 03:52:41;;;;;;;3.33;0.70;;;;;;;6.90;100.00;99687.44;5011041;28;20049;-70
2023/12/23 03:55:11;;;;;;;1.95;0.30;;;;;;;7.02;100.00;99695.66;5030852;28;20044;-70
2023/12/23 03:57:39;;;;;;;0.85;0.30;;;;;;;7.08;100.00;99699.81;5007811;28;20065;-71
2023/12/23 04:00:12;;;;;;;1.60;0.40;;;;;;;7.02;100.00;99700.06;5042916;28;20060;-69
2023/12/23 04:02:41;;;;;;;1.95;0.50;;;;;;;6.95;100.00;99688.09;5032693;28;20158;-71
2023/12/23 04:05:09;;;;;;;1.08;0.50;;;;;;;6.91;100.00;99697.06;5010794;28;20045;-71
2023/12/23 04:07:39;;;;;;;1.15;0.70;;;;;;;6.92;100.00;99690.88;5040702;28;20042;-69
2023/12/23 04:10:10;;;;;;;1.15;0.40;;;;;;;6.97;100.00;99688.88;5023557;28;20041;-70
2023/12/23 04:12:42;;;;;;;1.70;0.60;;;;;;;7.02;100.00;99686.91;5034933;28;20078;-68
2023/12/23 04:15:12;;;;;;;1.90;0.60;;;;;;;7.06;100.00;99685.88;5045640;28;20064;-70
2023/12/23 04:17:40;;;;;;;1.17;0.50;;;;;;;7.11;100.00;99685.66;5025329;28;20091;-71
2023/12/23 04:20:10;;;;;;;3.85;0.73;;;;;;;7.15;100.00;99680.19;5019940;28;20148;-72
2023/12/23 04:22:39;;;;;;;1.55;0.47;;;;;;;7.21;100.00;99684.34;5030059;28;20068;-72
2023/12/23 04:25:07;;;;;;;1.38;0.50;;;;;;;7.19;100.00;99673.00;5026728;28;20056;-72
2023/12/23 04:27:35;;;;;;;0.80;0.60;;;;;;;7.20;100.00;99670.31;5029159;28;20136;-70
2023/12/23 04:30:04;;;;;;;3.28;0.95;;;;;;;7.22;100.00;99670.25;5038953;28;20452;-69
2023/12/23 04:32:33;;;;;;;3.63;0.73;;;;;;;7.23;100.00;99657.00;5037822;28;20053;-69
2023/12/23 04:35:03;;;;;;;2.63;0.85;;;;;;;7.29;100.00;99654.09;5031790;28;20569;-69
2023/12/23 04:37:31;;;;;;;2.65;0.93;;;;;;;7.29;100.00;99647.97;5028909;28;20048;-70
2023/12/23 04:40:02;;;;;;;4.25;1.13;;;;;;;7.28;100.00;99647.09;5021305;28;20127;-70
2023/12/23 04:42:31;;;;;;;4.10;1.08;;;;;;;7.32;100.00;99643.41;5011413;28;20077;-71
2023/12/23 04:45:01;;;;;;;5.82;1.73;;;;;;;7.29;100.00;99633.00;5030182;28;20048;-70
2023/12/23 04:47:29;;;;;;;3.85;1.27;;;;;;;7.36;100.00;99645.00;5026216;28;20128;-71
2023/12/23 04:49:58;;;;;;;3.75;1.40;;;;;;;7.35;100.00;99634.53;5034347;28;20056;-71
2023/12/23 04:52:26;;;;;;;8.05;2.08;;;;;;;7.36;100.00;99633.59;5031373;28;20037;-70
2023/12/23 04:54:54;;;;;;;5.85;1.45;;;;;;;7.51;100.00;99646.06;5031604;28;20128;-71
2023/12/23 04:57:22;;;;;;;6.68;1.60;;;;;;;7.44;100.00;99628.81;5028703;28;20756;-70
2023/12/23 04:59:50;;;;;;;4.78;1.40;;;;;;;7.53;100.00;99636.31;5005582;28;20065;-71
2023/12/23 05:02:18;;;;;;;4.10;1.60;;;;;;;7.60;100.00;99636.88;5031658;28;20057;-71
2023/12/23 05:04:47;;;;;;;8.05;1.63;;;;;;;7.61;100.00;99630.66;5025484;28;20053;-71
2023/12/23 05:07:16;;;;;;;3.78;1.60;;;;;;;7.67;100.00;99631.25;5011074;28;20565;-70
2023/12/23 05:09:47;;;;;;;4.78;1.50;;;;;;;7.74;100.00;99621.25;5034090;28;20061;-71
2023/12/23 05:12:15;;;;;;;6.85;1.52;;;;;;;7.76;100.00;99629.94;5032663;28;20049;-71
2023/12/23 05:14:44;;;;;;;5.32;1.73;;;;;;;7.75;100.00;99622.97;5027365;28;20630;-72
2023/12/23 05:17:15;;;;;;;4.90;1.40;;;;;;;7.74;100.00;99613.34;5023003;28;20040;-70
2023/12/23 05:19:44;;;;;;;4.80;1.60;;;;;;;7.78;100.00;99608.78;5022865;28;20045;-71
2023/12/23 05:22:12;;;;;;;7.47;1.40;;;;;;;7.78;100.00;99612.28;5030909;28;20049;-70
2023/12/23 05:24:42;;;;;;;4.50;1.88;;;;;;;7.78;100.00;99599.09;5026897;28;20129;-71
2023/12/23 05:27:11;;;;;;;5.57;1.60;;;;;;;7.85;100.00;99604.94;5028117;28;21790;-71
2023/12/23 05:29:39;;;;;;;4.45;1.40;;;;;;;7.76;100.00;99579.88;5021943;28;20148;-71
2023/12/23 05:32:08;;;;;;;4.57;1.10;;;;;;;7.84;100.00;99590.91;5029891;28;20049;-71
2023/12/23 05:34:36;;;;;;;4.80;1.35;;;;;;;7.87;100.00;99592.56;5027902;28;20787;-71
2023/12/23 05:37:04;;;;;;;2.38;0.95;;;;;;;7.90;100.00;99603.78;5031469;28;20108;-72
2023/12/23 05:39:32;;;;;;;5.40;1.67;;;;;;;7.88;100.00;99603.00;5018577;28;20053;-70
2023/12/23 05:42:03;;;;;;;3.03;1.20;;;;;;;7.84;100.00;99587.41;5031473;28;20060;-71
2023/12/23 05:44:31;;;;;;;4.07;0.95;;;;;;;7.84;100.00;99596.19;5038473;28;20045;-71
2023/12/23 05:47:02;;;;;;;4.93;1.33;;;;;;;7.91;100.00;99589.66;5031050;28;20033;-71
2023/12/23 05:49:35;;;;;;;3.72;1.00;;;;;;;7.92;100.00;99595.78;5021597;28;20149;-71
2023/12/23 05:52:03;;;;;;;4.47;1.00;;;;;;;7.98;100.00;99599.00;5029732;28;20459;-72
2023/12/23 05:54:31;;;;;;;4.78;0.93;;;;;;;7.93;100.00;99600.13;5026794;28;20053;-71
2023/12/23 05:56:59;;;;;;;3.30;1.00;;;;;;;7.90;100.00;99601.13;5024388;28;20474;-72
2023/12/23 05:59:29;;;;;;;3.47;1.00;;;;;;;7.81;100.00;99593.69;5022491;28;20535;-73
2023/12/23 06:01:57;;;;;;;4.72;0.93;;;;;;;7.86;100.00;99601.38;5024234;28;20446;-71
2023/12/23 06:04:25;;;;;;;3.67;1.05;;;;;;;7.69;100.00;99578.47;5027053;28;20054;-71
2023/12/23 06:06:52;;;;;;;5.13;1.17;;;;;;;7.78;100.00;99587.72;5009094;28;20060;-71
2023/12/23 06:09:21;;;;;;;3.97;0.77;;;;;;;7.81;100.00;99588.41;5003892;28;20585;-69
2023/12/23 06:11:49;;;;;;;4.40;1.48;;;;;;;7.77;100.00;99581.56;5026074;28;20041;-70
2023/12/23 06:14:17;;;;;;;2.90;0.80;;;;;;;7.83;100.00;99570.75;5029552;28;20042;-70
2023/12/23 06:16:47;;;;;;;5.07;1.10;;;;;;;7.87;100.00;99577.56;5026483;28;20062;-70
2023/12/23 06:19:15;;;;;;;3.47;1.00;;;;;;;7.89;100.00;99573.06;5035534;28;20072;-71
2023/12/23 06:21:46;;;;;;;5.55;1.30;;;;;;;7.88;100.00;99576.63;5024238;28;20081;-69
2023/12/23 06:24:14;;;;;;;3.65;1.20;;;;;;;7.87;100.00;99580.19;5022752;28;20148;-71
2023/12/23 06:26:42;;;;;;;3.25;0.95;;;;;;;7.84;100.00;99577.72;5024283;28;20041;-71
2023/12/23 06:29:13;;;;;;;4.03;1.20;;;;;;;7.79;100.00;99578.88;5018155;28;20051;-70
2023/12/23 06:31:41;;;;;;;5.85;2.22;;;;;;;7.77;100.00;99570.19;5005722;28;20128;-71
2023/12/23 06:34:10;;;;;;;3.28;0.85;;;;;;;7.79;100.00;99569.19;5038825;28;20129;-71
2023/12/23 06:36:39;;;;;;;3.15;0.80;;;;;;;7.83;100.00;99559.34;5028099;28;20053;-71
2023/12/23 06:39:07;;;;;;;5.10;1.25;;;;;;;7.92;100.00;99556.25;5019445;28;20050;-70
2023/12/23 06:41:35;;;;;;;2.85;0.73;;;;;;;7.88;100.00;99547.63;5021480;28;20040;-72
2023/12/23 06:44:03;;;;;;;2.35;0.60;;;;;;;7.92;100.00;99566.78;5010910;28;20050;-70
2023/12/23 06:46:33;;;;;;;2.65;0.60;;;;;;;7.96;100.00;99561.31;5038670;28;20049;-70
2023/12/23 06:49:01;;;;;;;6.22;1.10;;;;;;;7.93;100.00;99565.88;5022103;28;20045;-69
2023/12/23 06:51:31;;;;;;;0.88;0.50;;;;;;;7.82;100.00;99542.69;5024211;28;20049;-70
2023/12/23 06:53:59;;;;;;;2.28;0.50;;;;;;;7.85;100.00;99558.34;5025164;28;20078;-70
2023/12/23 06:56:27;;;;;;;3.03;0.60;;;;;;;7.90;100.00;99561.59;5028919;28;20514;-70
2023/12/23 06:58:55;;;;;;;1.45;0.57;;;;;;;7.90;100.00;99551.06;5021608;28;20042;-68
2023/12/23 07:01:23;;;;;;;3.08;0.70;;;;;;;7.88;100.00;99555.53;5023663;28;20049;-71
2023/12/23 07:03:51;;;;;;;3.17;0.43;;;;;;;7.91;100.00;99560.66;5027228;28;20053;-71
2023/12/23 07:06:19;;;;;;;2.78;0.60;;;;;;;7.93;100.00;99569.34;5011564;28;20073;-70
2023/12/23 07:08:48;;;;;;;4.30;0.63;;;;;;;7.87;100.00;99556.47;5027496;28;20046;-70
2023/12/23 07:11:17;;;;;;;4.18;0.77;;;;;;;8.00;100.00;99573.41;5025445;28;20053;-70
2023/12/23 07:13:45;;;;;;;2.92;0.70;;;;;;;8.04;100.00;99561.75;5009711;28;20062;-70
2023/12/23 07:16:16;;;;;;;1.80;0.50;;;;;;;8.06;100.00;99548.50;5006499;28;20045;-68
2023/12/23 07:18:44;;;;;;;3.80;0.70;;;;;;;8.12;100.00;99565.81;5028478;28;20071;-71
2023/12/23 07:21:14;;;;;;;2.25;0.70;;;;;;;8.08;100.00;99555.41;5023819;28;20053;-70
2023/12/23 07:23:43;;;;;;;2.63;0.90;;;;;;;8.10;100.00;99558.84;5029738;28;20130;-70
2023/12/23 07:26:14;;;;;;;1.90;0.60;;;;;;;8.07;100.00;99564.25;5031428;28;20037;-70
2023/12/23 07:28:44;;;;;;;4.13;0.75;;;;;;;8.03;100.00;99553.94;5025544;28;20136;-70
2023/12/23 07:31:13;;;;;;;3.10;0.60;;;;;;;8.12;100.00;99560.53;5038783;28;20071;-69
2023/12/23 07:33:40;;;;;;;3.75;0.60;;;;;;;8.09;100.00;99559.75;5025095;28;20417;-71
2023/12/23 07:36:10;;;;;;;4.25;0.70;;;;;;;8.07;100.00;99558.97;5020929;28;20056;-71
2023/12/23 07:38:40;;;;;;;2.80;0.40;;;;;;;8.14;100.00;99575.38;5030047;28;20053;-69
2023/12/23 07:41:09;;;;;;;4.38;0.57;;;;;;;8.15;100.00;99570.94;5034612;28;20047;-69
2023/12/23 07:43:38;;;;;;;4.45;1.02;;;;;;;8.13;100.00;99568.38;5031602;28;20486;-69
2023/12/23 07:46:06;;;;;;;4.47;0.70;;;;;;;8.19;100.00;99572.47;5031495;28;20473;-70
2023/12/23 07:48:35;;;;;;;4.13;0.70;;;;;;;8.19;100.00;99577.75;5027859;28;20057;-69
2023/12/23 07:51:11;;;;;;;3.00;0.70;;;;;;;8.20;100.00;99576.81;5021345;28;20128;-69
2023/12/23 07:53:40;;;;;;;3.47;0.73;;;;;;;8.19;100.00;99590.94;5015136;28;20045;-70
2023/12/23 07:56:08;;;;;;;3.65;0.70;;;;;;;8.18;100.00;99565.53;5034340;28;20049;-68
2023/12/23 07:58:41;;;;;;;4.25;0.88;;;;;;;8.22;100.00;99578.47;5014552;28;20045;-70
2023/12/23 08:01:12;;;;;;;5.88;1.23;;;;;;;8.22;100.00;99585.50;5023277;28;20041;-68
2023/12/23 08:03:41;;;;;;;2.25;0.70;;;;;;;8.19;100.00;99583.03;5041682;28;20046;-70
2023/12/23 08:06:11;;;;;;;4.75;0.88;;;;;;;8.25;100.00;99577.44;5030053;28;20663;-69
2023/12/23 08:08:39;;;;;;;4.30;0.80;;;;;;;8.29;100.00;99579.88;5027777;28;20062;-69
2023/12/23 08:11:09;;;;;;;4.80;1.05;;;;;;;8.32;100.00;99582.38;5039990;28;20059;-69
2023/12/23 08:13:40;;;;;;;3.85;0.70;;;;;;;8.29;100.00;99569.31;5028870;28;20481;-70
2023/12/23 08:16:10;;;;;;;5.20;0.80;;;;;;;8.33;100.00;99572.69;5047082;28;20049;-70
2023/12/23 08:18:40;;;;;;;3.42;0.80;;;;;;;8.34;100.00;99562.03;5025250;28;20103;-69
2023/12/23 08:21:08;;;;;;;3.28;0.82;;;;;;;8.37;100.00;99561.88;5021993;28;20049;-68
2023/12/23 08:23:38;;;;;;;6.50;0.60;;;;;;;8.36;100.00;99572.50;5030482;28;20052;-70
2023/12/23 08:26:07;;;;;;;3.25;0.82;;;;;;;8.36;100.00;99554.03;5030661;28;20061;-69
2023/12/23 08:28:35;;;;;;;4.75;0.77;;;;;;;8.36;100.00;99554.03;5028002;28;20048;-70
2023/12/23 08:31:06;;;;;;;6.45;0.70;;;;;;;8.22;100.00;99540.69;5021974;28;20681;-70
2023/12/23 08:33:35;;;;;;;4.28;0.60;;;;;;;8.26;100.00;99543.09;5017785;28;20049;-71
2023/12/23 08:36:03;;;;;;;3.97;0.82;;;;;;;8.24;100.00;99575.75;5031458;28;20732;-70
2023/12/23 08:38:33;;;;;;;2.88;0.70;;;;;;;8.27;100.00;99565.03;5039733;28;20041;-69
2023/12/23 08:41:00;;;;;;;2.95;0.55;;;;;;;8.24;100.00;99568.69;5024143;28;20572;-69
2023/12/23 08:43:28;;;;;;;2.42;0.50;;;;;;;8.25;100.00;99569.53;5034529;28;20053;-69
2023/12/23 08:45:56;;;;;;;2.63;0.60;;;;;;;8.03;100.00;99533.69;5019720;28;20738;-67
2023/12/23 08:48:26;;;;;;;3.83;1.00;;;;;;;8.27;100.00;99575.59;5028531;28;20052;-70
2023/12/23 08:50:54;;;;;;;4.53;0.68;;;;;;;8.28;100.00;99582.56;5025173;28;20045;-70
2023/12/23 08:53:22;;;;;;;4.60;1.13;;;;;;;8.29;100.00;99589.56;5035198;28;20084;-70
2023/12/23 08:55:50;;;;;;;4.70;0.68;;;;;;;8.16;100.00;99562.09;5029392;28;20099;-70
2023/12/23 08:58:18;;;;;;;3.85;0.93;;;;;;;8.30;100.00;99591.28;5031121;28;20474;-69
2023/12/23 09:00:45;;;;;;;3.33;1.00;;;;;;;8.21;100.00;99570.63;5024087;28;20121;-71
2023/12/23 09:03:13;;;;;;;3.63;0.63;;;;;;;8.32;100.00;99592.94;5032203;28;20064;-71
2023/12/23 09:05:43;;;;;;;3.60;0.50;;;;;;;8.16;100.00;99546.28;5034288;28;20106;-70
2023/12/23 09:08:13;;;;;;;2.88;0.70;;;;;;;8.31;100.00;99579.78;5028211;28;20092;-70
2023/12/23 09:10:40;;;;;;;3.92;0.80;;;;;;;8.30;100.00;99592.13;5022421;28;20092;-72
2023/12/23 09:13:08;;;;;;;2.22;0.60;;;;;;;8.31;100.00;99599.13;5024466;28;20050;-71
2023/12/23 09:15:36;;;;;;;3.30;1.00;;;;;;;8.13;100.00;99583.34;5032301;28;20049;-70
2023/12/23 09:18:04;;;;;;;4.15;0.65;;;;;;;8.28;100.00;99606.31;5027698;28;20045;-69
2023/12/23 09:20:32;;;;;;;2.33;0.50;;;;;;;8.20;100.00;99603.19;5019297;28;20659;-68
2023/12/23 09:23:01;;;;;;;4.47;0.55;;;;;;;8.26;100.00;99605.53;5028555;28;20144;-69
2023/12/23 09:25:29;;;;;;;2.20;0.68;;;;;;;8.27;100.00;99609.88;5029782;28;20048;-69
2023/12/23 09:27:57;;;;;;;3.33;0.50;;;;;;;8.25;100.00;99606.47;5027522;28;20099;-67
2023/12/23 09:30:25;;;;;;;1.92;0.47;;;;;;;8.21;100.00;99612.81;5024519;28;20056;-69
2023/12/23 09:32:53;;;;;;;1.65;0.57;;;;;;;8.20;100.00;99606.69;5027476;28;20045;-67
2023/12/23 09:35:20;;;;;;;1.85;0.60;;;;;;;8.27;100.00;99600.19;5021242;28;20050;-69
2023/12/23 09:37:48;;;;;;;2.80;0.40;;;;;;;8.25;100.00;99614.38;5023161;28;20042;-69
2023/12/23 09:40:18;;;;;;;5.20;0.85;;;;;;;8.25;100.00;99617.00;5017073;28;20685;-67
2023/12/23 09:42:46;;;;;;;1.05;0.40;;;;;;;8.27;100.00;99616.00;5027102;28;20525;-69
2023/12/23 09:45:14;;;;;;;3.25;0.60;;;;;;;8.25;100.00;99624.94;5025463;28;20456;-69
2023/12/23 09:47:42;;;;;;;1.35;0.30;;;;;;;8.22;100.00;99611.88;5026817;28;20037;-70
2023/12/23 09:50:10;;;;;;;1.50;0.35;;;;;;;8.26;100.00;99626.63;5029432;28;20139;-68
2023/12/23 09:52:39;;;;;;;1.85;0.30;;;;;;;8.13;100.00;99621.13;5024840;28;20131;-69
2023/12/23 09:55:11;;;;;;;3.67;0.52;;;;;;;8.13;100.00;99621.13;5026308;28;20095;-70
2023/12/23 09:57:40;;;;;;;2.38;0.70;;;;;;;8.15;100.00;99634.22;5026219;28;20120;-70
2023/12/23 10:00:09;;;;;;;1.45;0.40;;;;;;;8.10;100.00;99652.91;5023162;28;20049;-67
2023/12/23 10:02:41;;;;;;;4.65;0.70;;;;;;;8.10;100.00;99655.53;5025788;28;20041;-69
2023/12/23 10:05:08;;;;;;;3.10;0.60;;;;;;;8.10;100.00;99653.75;5021470;28;20056;-67
2023/12/23 10:07:36;;;;;;;2.70;0.80;;;;;;;8.14;100.00;99645.72;5028900;28;20537;-69
2023/12/23 10:10:05;;;;;;;3.25;0.55;;;;;;;8.18;100.00;99644.63;5027417;28;20469;-68
2023/12/23 10:12:34;;;;;;;0.52;0.45;;;;;;;8.21;100.00;99624.22;5029443;28;20045;-69
2023/12/23 10:15:04;;;;;;;1.50;0.47;;;;;;;8.28;100.00;99625.63;5026462;28;20042;-70
2023/12/23 10:17:33;;;;;;;1.83;0.50;;;;;;;8.28;100.00;99640.59;5030309;28;20159;-70
2023/12/23 10:20:02;;;;;;;1.35;0.40;;;;;;;8.29;100.00;99629.13;5023079;28;20492;-68
2023/12/23 10:22:30;;;;;;;1.95;0.40;;;;;;;8.30;100.00;99623.78;5026612;28;20049;-67
2023/12/23 10:25:00;;;;;;;0.70;0.20;;;;;;;8.31;100.00;99614.09;5029255;28;20088;-68
2023/12/23 10:27:33;;;;;;;0.73;0.25;;;;;;;8.31;100.00;99630.75;5028265;28;20404;-70
2023/12/23 10:30:08;;;;;;;0.77;0.50;;;;;;;8.31;100.00;99606.16;5025088;28;20041;-67
2023/12/23 10:32:37;;;;;;;1.17;0.30;;;;;;;8.41;100.00;99594.25;5026029;28;20068;-69
2023/12/23 10:35:07;;;;;;;0.95;0.30;;;;;;;8.42;100.00;99596.81;5028710;28;20057;-68
2023/12/23 10:37:41;;;;;;;0.57;0.45;;;;;;;8.42;100.00;99594.16;5030106;28;20051;-69
2023/12/23 10:40:11;;;;;;;;;;;;;;;8.48;100.00;99606.22;5029672;28;20124;-66
2023/12/23 10:42:40;;;;;;;1.52;0.40;;;;;;;8.52;100.00;99612.16;5033639;28;19936;-69
2023/12/23 10:45:10;;;;;;;0.80;0.40;;;;;;;8.53;100.00;99603.31;5035245;28;20053;-69
2023/12/23 10:47:39;;;;;;;1.67;0.32;;;;;;;8.50;100.00;99614.88;5036091;28;20045;-70
2023/12/23 10:50:09;;;;;;;0.85;0.43;;;;;;;8.54;100.00;99610.28;5027266;28;20053;-71
2023/12/23 10:52:37;;;;;;;0.43;0.20;;;;;;;8.56;100.00;99611.94;5027891;28;20049;-69
2023/12/23 10:55:06;;;;;;;1.15;0.30;;;;;;;8.61;100.00;99624.91;5035321;28;20069;-70
2023/12/23 10:57:37;;;;;;;1.30;0.60;;;;;;;8.64;100.00;99630.03;5029372;28;20128;-70
2023/12/23 11:00:06;;;;;;;1.02;0.40;;;;;;;8.62;100.00;99616.91;5026537;28;20052;-69
2023/12/23 11:02:38;;;;;;;1.00;0.40;;;;;;;8.64;100.00;99622.13;5029510;28;20048;-70
2023/12/23 11:05:08;;;;;;;1.05;0.55;;;;;;;8.69;100.00;99630.63;5030107;28;20044;-70
2023/12/23 11:07:42;;;;;;;0.45;0.30;;;;;;;8.64;100.00;99628.25;5030414;28;20051;-70
2023/12/23 11:10:12;;;;;;;1.48;0.40;;;;;;;8.73;100.00;99638.31;5027996;28;20080;-69
2023/12/23 11:12:40;;;;;;;1.35;0.50;;;;;;;8.72;100.00;99639.25;5028805;28;20833;-70
2023/12/23 11:15:08;;;;;;;1.77;0.43;;;;;;;8.74;100.00;99637.38;5032103;28;20425;-73
2023/12/23 11:17:46;;;;;;;1.40;0.70;;;;;;;8.74;100.00;99616.28;5038359;28;20038;-71
2023/12/23 11:20:45;;;;;;;1.40;0.90;;;;;;;8.69;100.00;99628.84;5030731;28;20052;-70
2023/12/23 11:23:35;;;;;;;2.03;0.50;;;;;;;8.74;100.00;99634.75;5036513;28;20117;-72
2023/12/23 11:26:04;;;;;;;0.68;0.40;;;;;;;8.76;100.00;99626.75;5034532;28;20070;-72
2023/12/23 11:28:36;;;;;;;1.40;0.40;;;;;;;8.77;100.00;99628.47;5033776;28;20059;-70
2023/12/23 11:31:04;;;;;;;1.00;0.35;;;;;;;8.68;100.00;99640.31;5023850;28;20049;-69
2023/12/23 11:33:36;;;;;;;0.77;0.40;;;;;;;8.65;100.00;99631.75;5034672;28;20064;-70
2023/12/23 11:36:05;;;;;;;0.77;0.40;;;;;;;8.64;100.00;99638.81;5032416;28;20045;-69
2023/12/23 11:38:46;;;;;;;0.65;0.47;;;;;;;8.76;100.00;99642.59;5036475;28;20049;-70
2023/12/23 11:41:15;;;;;;;3.95;0.30;;;;;;;8.78;100.00;99646.88;5025762;28;20033;-70
2023/12/23 11:43:45;;;;;;;0.88;0.30;;;;;;;8.85;100.00;99646.53;5031137;28;20045;-69
2023/12/23 11:46:13;;;;;;;0.35;0.30;;;;;;;8.79;100.00;99635.38;5030326;28;20053;-71